createdAt,value
2022-09-02T00:00:19.824Z,965.02
2022-09-02T00:00:38.386Z,965.02
2022-09-02T00:01:09.380Z,965.22
2022-09-02T00:01:41.475Z,965.22
2022-09-02T00:02:11.534Z,965.42
2022-09-02T00:02:42.585Z,965.42
2022-09-02T00:03:13.644Z,965.32
2022-09-02T00:03:44.343Z,965.32
2022-09-02T00:04:15.352Z,965.32
2022-09-02T00:04:46.368Z,965.32
2022-09-02T00:05:17.365Z,965.22
2022-09-02T00:05:48.388Z,965.22
2022-09-02T00:06:19.427Z,965.32
2022-09-02T00:06:51.358Z,965.32
2022-09-02T00:07:21.353Z,965.12
2022-09-02T00:07:52.394Z,965.12
2022-09-02T00:08:23.429Z,965.42
2022-09-02T00:08:54.414Z,965.42
2022-09-02T00:09:25.360Z,965.32
2022-09-02T00:09:56.405Z,965.32
2022-09-02T00:10:27.443Z,965.42
2022-09-02T00:10:58.352Z,965.42
2022-09-02T00:11:29.380Z,965.32
2022-09-02T00:12:01.451Z,965.32
2022-09-02T00:12:31.360Z,965.12
2022-09-02T00:13:02.533Z,965.32
2022-09-02T00:13:33.551Z,965.32
2022-09-02T00:14:04.439Z,965.22
2022-09-02T00:14:35.362Z,965.22
2022-09-02T00:15:18.747Z,965.12
2022-09-02T00:15:37.376Z,965.12
2022-09-02T00:16:08.480Z,965.22
2022-09-02T00:16:39.484Z,965.22
2022-09-02T00:17:11.383Z,965.12
2022-09-02T00:17:42.050Z,965.12
2022-09-02T00:18:15.347Z,965.02
2022-09-02T00:18:45.889Z,965.02
2022-09-02T00:19:14.372Z,965.22
2022-09-02T00:19:45.342Z,965.22
2022-09-02T00:20:16.455Z,965.12
2022-09-02T00:20:47.397Z,965.12
2022-09-02T00:21:18.365Z,965.22
2022-09-02T00:21:49.362Z,965.22
2022-09-02T00:22:21.490Z,965.22
2022-09-02T00:22:51.362Z,965.22
2022-09-02T00:23:22.494Z,965.32
2022-09-02T00:23:53.377Z,965.32
2022-09-02T00:24:24.346Z,965.02
2022-09-02T00:24:55.336Z,965.02
2022-09-02T00:25:26.375Z,965.22
2022-09-02T00:25:57.353Z,965.22
2022-09-02T00:26:28.354Z,965.12
2022-09-02T00:26:59.361Z,965.12
2022-09-02T00:27:31.352Z,965.02
2022-09-02T00:28:01.432Z,965.02
2022-09-02T00:28:32.371Z,965.12
2022-09-02T00:29:03.402Z,965.22
2022-09-02T00:29:34.362Z,965.22
2022-09-02T00:30:17.803Z,965.02
2022-09-02T00:30:36.383Z,965.02
2022-09-02T00:31:07.494Z,965.12
2022-09-02T00:31:38.445Z,965.12
2022-09-02T00:32:09.481Z,964.92
2022-09-02T00:32:41.356Z,964.92
2022-09-02T00:33:11.354Z,965.12
2022-09-02T00:33:42.482Z,965.12
2022-09-02T00:34:13.370Z,965.12
2022-09-02T00:34:44.422Z,965.12
2022-09-02T00:35:15.402Z,965.12
2022-09-02T00:35:46.354Z,965.12
2022-09-02T00:36:17.483Z,964.81
2022-09-02T00:36:48.341Z,964.81
2022-09-02T00:37:19.414Z,965.12
2022-09-02T00:37:51.370Z,965.12
2022-09-02T00:38:21.378Z,965.12
2022-09-02T00:38:52.364Z,965.12
2022-09-02T00:39:23.429Z,965.02
2022-09-02T00:39:54.405Z,965.02
2022-09-02T00:40:25.491Z,964.92
2022-09-02T00:40:56.403Z,964.92
2022-09-02T00:41:27.358Z,965.02
2022-09-02T00:41:58.363Z,965.02
2022-09-02T00:42:29.386Z,965.12
2022-09-02T00:43:01.414Z,965.12
2022-09-02T00:43:31.335Z,965.02
2022-09-02T00:44:02.458Z,965.02
2022-09-02T00:44:33.410Z,965.02
2022-09-02T00:45:16.733Z,964.92
2022-09-02T00:45:35.434Z,964.92
2022-09-02T00:46:06.543Z,965.22
2022-09-02T00:46:37.351Z,965.22
2022-09-02T00:47:08.443Z,965.12
2022-09-02T00:47:39.378Z,965.12
2022-09-02T00:48:11.412Z,965.02
2022-09-02T00:48:41.381Z,965.02
2022-09-02T00:49:12.367Z,965.02
2022-09-02T00:49:43.430Z,965.02
2022-09-02T00:50:14.349Z,965.02
2022-09-02T00:50:45.356Z,965.02
2022-09-02T00:51:16.348Z,965.22
2022-09-02T00:51:47.357Z,965.22
2022-09-02T00:52:18.418Z,964.92
2022-09-02T00:52:49.398Z,964.92
2022-09-02T00:53:21.501Z,965.12
2022-09-02T00:53:51.413Z,965.12
2022-09-02T00:54:22.349Z,964.92
2022-09-02T00:54:53.420Z,964.92
2022-09-02T00:55:24.359Z,964.92
2022-09-02T00:55:55.362Z,964.92
2022-09-02T00:56:26.387Z,965.12
2022-09-02T00:56:57.364Z,965.12
2022-09-02T00:57:28.398Z,965.02
2022-09-02T00:57:59.418Z,965.02
2022-09-02T00:58:31.371Z,965.12
2022-09-02T00:59:01.500Z,965.12
2022-09-02T00:59:32.352Z,965.02
2022-09-02T01:00:15.872Z,965.02
2022-09-02T01:00:39.341Z,965.02
2022-09-02T01:01:09.372Z,964.81
2022-09-02T01:01:37.074Z,964.81
2022-09-02T01:02:07.624Z,964.92
2022-09-02T01:02:38.367Z,964.92
2022-09-02T01:03:10.849Z,965.12
2022-09-02T01:03:41.456Z,965.12
2022-09-02T01:04:23.891Z,965.02
2022-09-02T01:04:42.365Z,965.02
2022-09-02T01:05:21.054Z,965.02
2022-09-02T01:05:44.328Z,965.02
2022-09-02T01:06:15.573Z,964.92
2022-09-02T01:06:46.453Z,964.92
2022-09-02T01:07:17.382Z,965.12
2022-09-02T01:07:48.468Z,965.12
2022-09-02T01:08:19.457Z,965.12
2022-09-02T01:08:51.359Z,965.12
2022-09-02T01:09:21.407Z,965.12
2022-09-02T01:09:52.524Z,965.12
2022-09-02T01:10:23.767Z,965.12
2022-09-02T01:10:54.354Z,965.12
2022-09-02T01:11:25.415Z,965.02
2022-09-02T01:11:56.348Z,965.02
2022-09-02T01:12:27.403Z,965.02
2022-09-02T01:12:58.407Z,965.02
2022-09-02T01:13:29.383Z,965.12
2022-09-02T01:14:01.489Z,965.12
2022-09-02T01:14:31.384Z,964.92
2022-09-02T01:15:14.981Z,964.81
2022-09-02T01:15:33.398Z,964.81
2022-09-02T01:16:04.473Z,965.02
2022-09-02T01:16:35.484Z,965.02
2022-09-02T01:17:06.396Z,964.81
2022-09-02T01:17:37.341Z,964.81
2022-09-02T01:18:08.470Z,964.92
2022-09-02T01:18:39.393Z,964.92
2022-09-02T01:19:11.518Z,964.92
2022-09-02T01:19:41.368Z,964.92
2022-09-02T01:20:12.479Z,964.92
2022-09-02T01:20:43.372Z,964.92
2022-09-02T01:21:14.350Z,965.12
2022-09-02T01:21:45.397Z,965.12
2022-09-02T01:22:16.372Z,964.92
2022-09-02T01:22:47.377Z,964.92
2022-09-02T01:23:18.408Z,965.02
2022-09-02T01:23:49.354Z,965.02
2022-09-02T01:24:21.347Z,964.92
2022-09-02T01:24:51.352Z,964.92
2022-09-02T01:25:22.411Z,965.02
2022-09-02T01:25:53.479Z,965.02
2022-09-02T01:26:24.350Z,965.02
2022-09-02T01:26:55.338Z,965.02
2022-09-02T01:27:26.380Z,964.81
2022-09-02T01:27:57.326Z,964.81
2022-09-02T01:28:28.345Z,964.92
2022-09-02T01:28:59.381Z,964.92
2022-09-02T01:29:31.336Z,964.92
2022-09-02T01:30:13.752Z,964.92
2022-09-02T01:30:32.366Z,964.81
2022-09-02T01:31:03.532Z,964.81
2022-09-02T01:31:34.392Z,964.81
2022-09-02T01:32:05.444Z,965.02
2022-09-02T01:32:36.374Z,965.02
2022-09-02T01:33:07.337Z,965.02
2022-09-02T01:33:38.374Z,965.02
2022-09-02T01:34:09.361Z,965.02
2022-09-02T01:34:41.339Z,965.02
2022-09-02T01:35:11.463Z,964.81
2022-09-02T01:35:42.411Z,964.81
2022-09-02T01:36:13.522Z,964.81
2022-09-02T01:36:44.345Z,964.81
2022-09-02T01:37:15.332Z,964.71
2022-09-02T01:37:47.370Z,964.71
2022-09-02T01:38:17.356Z,965.02
2022-09-02T01:38:48.336Z,965.02
2022-09-02T01:39:19.342Z,964.81
2022-09-02T01:39:51.353Z,964.81
2022-09-02T01:40:21.443Z,965.02
2022-09-02T01:40:52.405Z,965.02
2022-09-02T01:41:23.369Z,964.81
2022-09-02T01:41:54.340Z,964.81
2022-09-02T01:42:25.354Z,964.81
2022-09-02T01:42:56.316Z,964.81
2022-09-02T01:43:27.325Z,964.92
2022-09-02T01:43:58.349Z,964.92
2022-09-02T01:44:29.346Z,964.92
2022-09-02T01:45:13.757Z,964.92
2022-09-02T01:45:31.400Z,964.71
2022-09-02T01:46:02.447Z,964.71
2022-09-02T01:46:33.433Z,964.71
2022-09-02T01:47:04.369Z,964.92
2022-09-02T01:47:35.359Z,964.92
2022-09-02T01:48:06.410Z,964.92
2022-09-02T01:48:37.401Z,964.92
2022-09-02T01:49:08.362Z,964.92
2022-09-02T01:49:39.389Z,964.92
2022-09-02T01:50:11.439Z,964.71
2022-09-02T01:50:45.483Z,964.71
2022-09-02T01:51:12.360Z,964.61
2022-09-02T01:51:43.365Z,964.61
2022-09-02T01:52:14.330Z,964.61
2022-09-02T01:52:45.321Z,964.61
2022-09-02T01:53:16.350Z,964.61
2022-09-02T01:53:47.347Z,964.61
2022-09-02T01:54:18.341Z,964.71
2022-09-02T01:54:49.329Z,964.71
2022-09-02T01:55:21.317Z,964.81
2022-09-02T01:55:51.381Z,964.81
2022-09-02T01:56:22.343Z,964.61
2022-09-02T01:56:53.381Z,964.61
2022-09-02T01:57:24.352Z,964.71
2022-09-02T01:57:55.335Z,964.71
2022-09-02T01:58:26.511Z,964.71
2022-09-02T01:58:57.369Z,964.71
2022-09-02T01:59:28.359Z,964.81
2022-09-02T01:59:59.337Z,964.81
2022-09-02T02:00:43.884Z,964.81
2022-09-02T02:01:01.988Z,964.81
2022-09-02T02:01:32.481Z,964.71
2022-09-02T02:02:03.455Z,964.81
2022-09-02T02:02:34.337Z,964.81
2022-09-02T02:03:05.415Z,964.61
2022-09-02T02:03:36.393Z,964.61
2022-09-02T02:04:11.400Z,964.92
2022-09-02T02:04:38.335Z,964.92
2022-09-02T02:05:09.415Z,964.41
2022-09-02T02:05:41.332Z,964.41
2022-09-02T02:06:11.329Z,964.71
2022-09-02T02:06:42.321Z,964.71
2022-09-02T02:07:13.352Z,964.71
2022-09-02T02:07:44.337Z,964.71
2022-09-02T02:08:15.339Z,964.71
2022-09-02T02:08:46.375Z,964.71
2022-09-02T02:09:17.378Z,964.71
2022-09-02T02:09:48.331Z,964.71
2022-09-02T02:10:19.354Z,964.81
2022-09-02T02:10:51.314Z,964.81
2022-09-02T02:11:21.347Z,964.51
2022-09-02T02:11:52.350Z,964.51
2022-09-02T02:12:23.344Z,964.71
2022-09-02T02:12:54.359Z,964.71
2022-09-02T02:13:25.384Z,964.71
2022-09-02T02:13:56.364Z,964.71
2022-09-02T02:14:27.394Z,964.61
2022-09-02T02:14:58.315Z,964.61
2022-09-02T02:15:41.631Z,964.71
2022-09-02T02:16:01.460Z,964.71
2022-09-02T02:16:31.380Z,964.71
2022-09-02T02:17:02.430Z,964.41
2022-09-02T02:17:33.369Z,964.41
2022-09-02T02:18:04.349Z,964.51
2022-09-02T02:18:35.332Z,964.51
2022-09-02T02:19:06.355Z,964.41
2022-09-02T02:19:37.313Z,964.41
2022-09-02T02:20:08.504Z,964.61
2022-09-02T02:20:39.416Z,964.61
2022-09-02T02:21:11.316Z,964.92
2022-09-02T02:21:41.335Z,964.92
2022-09-02T02:22:12.340Z,964.71
2022-09-02T02:22:43.380Z,964.71
2022-09-02T02:23:14.407Z,964.61
2022-09-02T02:23:45.310Z,964.61
2022-09-02T02:24:16.353Z,964.71
2022-09-02T02:24:47.355Z,964.71
2022-09-02T02:25:18.336Z,964.61
2022-09-02T02:25:49.348Z,964.61
2022-09-02T02:26:21.375Z,964.51
2022-09-02T02:26:51.379Z,964.51
2022-09-02T02:27:22.378Z,964.61
2022-09-02T02:27:53.476Z,964.61
2022-09-02T02:28:24.360Z,964.41
2022-09-02T02:28:55.356Z,964.41
2022-09-02T02:29:26.332Z,964.61
2022-09-02T02:29:57.338Z,964.61
2022-09-02T02:30:40.781Z,964.41
2022-09-02T02:30:59.335Z,964.41
2022-09-02T02:31:31.440Z,964.51
2022-09-02T02:32:01.380Z,964.51
2022-09-02T02:32:32.334Z,964.81
2022-09-02T02:33:03.381Z,964.51
2022-09-02T02:33:36.275Z,964.51
2022-09-02T02:34:05.364Z,964.61
2022-09-02T02:34:36.319Z,964.61
2022-09-02T02:35:07.425Z,964.71
2022-09-02T02:35:38.388Z,964.71
2022-09-02T02:36:09.333Z,964.61
2022-09-02T02:36:41.332Z,964.61
2022-09-02T02:37:11.315Z,964.71
2022-09-02T02:37:42.310Z,964.71
2022-09-02T02:38:14.462Z,964.61
2022-09-02T02:38:44.311Z,964.61
2022-09-02T02:39:15.335Z,964.51
2022-09-02T02:39:46.367Z,964.51
2022-09-02T02:40:17.397Z,964.51
2022-09-02T02:40:48.410Z,964.51
2022-09-02T02:41:19.337Z,964.51
2022-09-02T02:41:51.336Z,964.51
2022-09-02T02:42:21.296Z,964.41
2022-09-02T02:42:52.318Z,964.41
2022-09-02T02:43:23.586Z,964.71
2022-09-02T02:43:54.308Z,964.71
2022-09-02T02:44:25.418Z,964.51
2022-09-02T02:44:56.323Z,964.51
2022-09-02T02:45:39.681Z,964.61
2022-09-02T02:45:58.323Z,964.61
2022-09-02T02:46:29.451Z,964.61
2022-09-02T02:47:01.418Z,964.61
2022-09-02T02:47:31.326Z,964.71
2022-09-02T02:48:02.466Z,964.61
2022-09-02T02:48:33.347Z,964.61
2022-09-02T02:49:04.351Z,964.51
2022-09-02T02:49:35.331Z,964.51
2022-09-02T02:50:06.392Z,964.51
2022-09-02T02:50:37.318Z,964.51
2022-09-02T02:51:08.340Z,964.71
2022-09-02T02:51:39.346Z,964.71
2022-09-02T02:52:11.308Z,964.61
2022-09-02T02:52:41.342Z,964.61
2022-09-02T02:53:14.076Z,964.61
2022-09-02T02:53:43.335Z,964.61
2022-09-02T02:54:14.488Z,964.61
2022-09-02T02:54:45.354Z,964.61
2022-09-02T02:55:16.310Z,964.41
2022-09-02T02:55:49.798Z,964.41
2022-09-02T02:56:18.294Z,964.71
2022-09-02T02:56:49.316Z,964.71
2022-09-02T02:57:21.316Z,964.41
2022-09-02T02:57:51.320Z,964.41
2022-09-02T02:58:22.301Z,964.61
2022-09-02T02:58:53.342Z,964.61
2022-09-02T02:59:24.344Z,964.61
2022-09-02T02:59:55.383Z,964.61
2022-09-02T03:00:38.661Z,964.51
2022-09-02T03:00:57.318Z,964.51
2022-09-02T03:01:28.356Z,964.41
2022-09-02T03:01:59.452Z,964.41
2022-09-02T03:02:31.407Z,964.71
2022-09-02T03:03:01.516Z,964.71
2022-09-02T03:03:32.304Z,964.51
2022-09-02T03:04:03.413Z,964.61
2022-09-02T03:04:34.323Z,964.61
2022-09-02T03:05:05.371Z,964.41
2022-09-02T03:05:36.297Z,964.41
2022-09-02T03:06:07.491Z,964.34
2022-09-02T03:06:38.352Z,964.34
2022-09-02T03:07:09.357Z,964.51
2022-09-02T03:07:41.315Z,964.51
2022-09-02T03:08:11.320Z,964.41
2022-09-02T03:08:42.311Z,964.41
2022-09-02T03:09:13.393Z,964.51
2022-09-02T03:09:44.317Z,964.51
2022-09-02T03:10:15.311Z,964.51
2022-09-02T03:10:46.288Z,964.51
2022-09-02T03:11:17.304Z,964.41
2022-09-02T03:11:48.357Z,964.41
2022-09-02T03:12:19.316Z,964.34
2022-09-02T03:12:51.370Z,964.34
2022-09-02T03:13:21.489Z,964.71
2022-09-02T03:13:52.323Z,964.71
2022-09-02T03:14:23.410Z,964.41
2022-09-02T03:14:54.322Z,964.41
2022-09-02T03:15:37.773Z,964.34
2022-09-02T03:15:56.437Z,964.34
2022-09-02T03:16:27.429Z,964.34
2022-09-02T03:16:58.312Z,964.34
2022-09-02T03:17:29.298Z,964.51
2022-09-02T03:18:01.334Z,964.51
2022-09-02T03:18:31.305Z,964.34
2022-09-02T03:19:02.524Z,964.61
2022-09-02T03:19:33.342Z,964.61
2022-09-02T03:20:04.389Z,964.41
2022-09-02T03:20:35.348Z,964.41
2022-09-02T03:21:06.344Z,964.41
2022-09-02T03:21:38.734Z,964.41
2022-09-02T03:22:08.429Z,964.41
2022-09-02T03:22:39.343Z,964.41
2022-09-02T03:23:11.354Z,964.41
2022-09-02T03:23:41.330Z,964.41
2022-09-02T03:24:12.327Z,964.61
2022-09-02T03:24:43.337Z,964.61
2022-09-02T03:25:14.337Z,964.24
2022-09-02T03:25:45.358Z,964.24
2022-09-02T03:26:18.570Z,964.71
2022-09-02T03:26:47.305Z,964.71
2022-09-02T03:27:18.307Z,964.34
2022-09-02T03:27:49.310Z,964.34
2022-09-02T03:28:21.382Z,964.24
2022-09-02T03:28:51.322Z,964.24
2022-09-02T03:29:22.305Z,964.34
2022-09-02T03:29:53.337Z,964.34
2022-09-02T03:30:36.720Z,964.51
2022-09-02T03:30:55.388Z,964.51
2022-09-02T03:31:26.499Z,964.41
2022-09-02T03:31:57.315Z,964.41
2022-09-02T03:32:28.321Z,964.34
2022-09-02T03:33:03.641Z,964.34
2022-09-02T03:33:31.303Z,964.34
2022-09-02T03:34:01.314Z,964.34
2022-09-02T03:34:32.405Z,964.34
2022-09-02T03:35:03.414Z,964.24
2022-09-02T03:35:34.324Z,964.24
2022-09-02T03:36:05.345Z,964.34
2022-09-02T03:36:36.309Z,964.34
2022-09-02T03:37:07.303Z,964.14
2022-09-02T03:37:38.315Z,964.14
2022-09-02T03:38:09.361Z,964.14
2022-09-02T03:38:41.318Z,964.14
2022-09-02T03:39:11.348Z,964.41
2022-09-02T03:39:42.310Z,964.41
2022-09-02T03:40:13.437Z,964.34
2022-09-02T03:40:44.462Z,964.34
2022-09-02T03:41:15.291Z,964.24
2022-09-02T03:41:46.316Z,964.24
2022-09-02T03:42:19.538Z,964.41
2022-09-02T03:42:48.349Z,964.41
2022-09-02T03:43:19.356Z,964.14
2022-09-02T03:43:51.301Z,964.14
2022-09-02T03:44:21.305Z,964.24
2022-09-02T03:44:52.333Z,964.24
2022-09-02T03:45:35.868Z,964.34
2022-09-02T03:45:54.416Z,964.34
2022-09-02T03:46:25.496Z,964.34
2022-09-02T03:46:56.336Z,964.34
2022-09-02T03:47:27.364Z,964.41
2022-09-02T03:47:58.305Z,964.41
2022-09-02T03:48:29.309Z,964.24
2022-09-02T03:49:01.354Z,964.24
2022-09-02T03:49:31.371Z,964.34
2022-09-02T03:50:02.410Z,964.24
2022-09-02T03:50:33.517Z,964.24
2022-09-02T03:51:04.321Z,964.14
2022-09-02T03:51:35.327Z,964.14
2022-09-02T03:52:06.307Z,964.24
2022-09-02T03:52:37.308Z,964.24
2022-09-02T03:53:08.357Z,964.51
2022-09-02T03:53:39.317Z,964.51
2022-09-02T03:54:11.324Z,964.24
2022-09-02T03:54:41.409Z,964.24
2022-09-02T03:55:12.286Z,964.24
2022-09-02T03:55:43.308Z,964.24
2022-09-02T03:56:14.301Z,964.24
2022-09-02T03:56:45.293Z,964.24
2022-09-02T03:57:16.290Z,964.14
2022-09-02T03:57:47.363Z,964.14
2022-09-02T03:58:18.290Z,964.34
2022-09-02T03:58:49.306Z,964.34
2022-09-02T03:59:21.282Z,964.24
2022-09-02T03:59:51.371Z,964.24
2022-09-02T04:00:34.659Z,964.34
2022-09-02T04:00:53.415Z,964.34
2022-09-02T04:01:24.437Z,964.14
2022-09-02T04:01:55.374Z,964.14
2022-09-02T04:02:26.561Z,964.34
2022-09-02T04:02:57.371Z,964.34
2022-09-02T04:03:28.290Z,964.14
2022-09-02T04:03:59.290Z,964.14
2022-09-02T04:04:31.278Z,964.04
2022-09-02T04:05:01.393Z,964.04
2022-09-02T04:05:32.323Z,964.34
2022-09-02T04:06:03.386Z,964.14
2022-09-02T04:06:34.311Z,964.14
2022-09-02T04:07:05.322Z,964.04
2022-09-02T04:07:36.297Z,964.04
2022-09-02T04:08:07.356Z,964.14
2022-09-02T04:08:38.359Z,964.14
2022-09-02T04:09:09.312Z,964.24
2022-09-02T04:09:45.959Z,964.24
2022-09-02T04:10:11.409Z,964.14
2022-09-02T04:10:42.328Z,964.14
2022-09-02T04:11:13.354Z,964.24
2022-09-02T04:11:44.316Z,964.24
2022-09-02T04:12:15.308Z,964.24
2022-09-02T04:12:46.339Z,964.24
2022-09-02T04:13:17.408Z,964.24
2022-09-02T04:13:48.288Z,964.24
2022-09-02T04:14:19.291Z,964.24
2022-09-02T04:14:52.002Z,964.24
2022-09-02T04:15:33.691Z,964.24
2022-09-02T04:15:52.376Z,964.24
2022-09-02T04:16:23.450Z,964.34
2022-09-02T04:16:54.341Z,964.34
2022-09-02T04:17:25.353Z,964.24
2022-09-02T04:17:56.304Z,964.24
2022-09-02T04:18:27.392Z,964.04
2022-09-02T04:18:58.284Z,964.04
2022-09-02T04:19:29.296Z,964.24
2022-09-02T04:20:01.326Z,964.24
2022-09-02T04:20:31.312Z,964.24
2022-09-02T04:21:02.391Z,964.04
2022-09-02T04:21:33.297Z,964.04
2022-09-02T04:22:04.392Z,964.34
2022-09-02T04:22:35.315Z,964.34
2022-09-02T04:23:06.366Z,964.24
2022-09-02T04:23:37.279Z,964.24
2022-09-02T04:24:08.482Z,964.34
2022-09-02T04:24:39.319Z,964.34
2022-09-02T04:25:11.353Z,964.24
2022-09-02T04:25:41.306Z,964.24
2022-09-02T04:26:12.300Z,964.14
2022-09-02T04:26:45.087Z,964.14
2022-09-02T04:27:14.311Z,964.14
2022-09-02T04:27:45.338Z,964.14
2022-09-02T04:28:16.287Z,964.24
2022-09-02T04:28:47.357Z,964.24
2022-09-02T04:29:19.028Z,964.24
2022-09-02T04:29:49.377Z,964.24
2022-09-02T04:30:33.764Z,963.83
2022-09-02T04:30:51.440Z,963.83
2022-09-02T04:31:22.460Z,964.34
2022-09-02T04:31:53.429Z,964.34
2022-09-02T04:32:24.385Z,964.14
2022-09-02T04:32:55.394Z,964.14
2022-09-02T04:33:26.394Z,964.34
2022-09-02T04:33:57.371Z,964.34
2022-09-02T04:34:28.336Z,964.14
2022-09-02T04:34:59.347Z,964.14
2022-09-02T04:35:31.383Z,964.04
2022-09-02T04:36:01.456Z,964.04
2022-09-02T04:36:32.403Z,964.24
2022-09-02T04:37:03.398Z,964.34
2022-09-02T04:37:34.483Z,964.34
2022-09-02T04:38:05.442Z,964.34
2022-09-02T04:38:36.325Z,964.34
2022-09-02T04:39:07.364Z,964.34
2022-09-02T04:39:38.453Z,964.34
2022-09-02T04:40:09.620Z,964.24
2022-09-02T04:40:41.431Z,964.24
2022-09-02T04:41:11.364Z,964.24
2022-09-02T04:41:42.407Z,964.24
2022-09-02T04:42:13.377Z,964.34
2022-09-02T04:42:44.361Z,964.34
2022-09-02T04:43:15.378Z,964.41
2022-09-02T04:43:46.356Z,964.41
2022-09-02T04:44:17.392Z,964.24
2022-09-02T04:44:48.370Z,964.24
2022-09-02T04:45:31.650Z,964.14
2022-09-02T04:45:51.475Z,964.14
2022-09-02T04:46:22.851Z,964.24
2022-09-02T04:46:52.317Z,964.24
2022-09-02T04:47:23.407Z,964.24
2022-09-02T04:47:54.425Z,964.24
2022-09-02T04:48:25.404Z,964.24
2022-09-02T04:48:56.397Z,964.24
2022-09-02T04:49:27.389Z,964.24
2022-09-02T04:49:58.358Z,964.24
2022-09-02T04:50:29.410Z,964.24
2022-09-02T04:51:01.424Z,964.24
2022-09-02T04:51:31.407Z,964.34
2022-09-02T04:52:02.494Z,964.04
2022-09-02T04:52:33.351Z,964.04
2022-09-02T04:53:04.391Z,964.24
2022-09-02T04:53:36.046Z,964.24
2022-09-02T04:54:06.474Z,964.34
2022-09-02T04:54:37.371Z,964.34
2022-09-02T04:55:08.522Z,964.24
2022-09-02T04:55:39.350Z,964.24
2022-09-02T04:56:11.391Z,964.14
2022-09-02T04:56:41.347Z,964.14
2022-09-02T04:57:12.388Z,964.24
2022-09-02T04:57:43.437Z,964.24
2022-09-02T04:58:14.348Z,964.24
2022-09-02T04:58:45.369Z,964.24
2022-09-02T04:59:16.417Z,964.34
2022-09-02T04:59:47.359Z,964.34
2022-09-02T05:00:30.722Z,964.24
2022-09-02T05:00:49.371Z,964.24
2022-09-02T05:01:21.525Z,964.34
2022-09-02T05:01:51.544Z,964.34
2022-09-02T05:02:22.440Z,964.34
2022-09-02T05:02:53.542Z,964.34
2022-09-02T05:03:24.382Z,964.41
2022-09-02T05:03:55.361Z,964.41
2022-09-02T05:04:26.378Z,964.24
2022-09-02T05:04:57.352Z,964.24
2022-09-02T05:05:28.359Z,964.34
2022-09-02T05:05:59.306Z,964.34
2022-09-02T05:06:31.405Z,964.41
2022-09-02T05:07:01.370Z,964.41
2022-09-02T05:07:32.355Z,964.41
2022-09-02T05:08:03.371Z,964.34
2022-09-02T05:08:34.417Z,964.34
2022-09-02T05:09:05.387Z,964.41
2022-09-02T05:09:36.370Z,964.41
2022-09-02T05:10:07.476Z,964.34
2022-09-02T05:10:38.490Z,964.34
2022-09-02T05:11:09.382Z,964.34
2022-09-02T05:11:41.358Z,964.34
2022-09-02T05:12:11.432Z,964.41
2022-09-02T05:12:42.353Z,964.41
2022-09-02T05:13:13.458Z,964.34
2022-09-02T05:13:44.356Z,964.34
2022-09-02T05:14:15.391Z,964.24
2022-09-02T05:14:46.379Z,964.24
2022-09-02T05:15:29.715Z,964.41
2022-09-02T05:15:48.485Z,964.41
2022-09-02T05:16:19.509Z,964.41
2022-09-02T05:16:51.352Z,964.41
2022-09-02T05:17:21.428Z,964.34
2022-09-02T05:17:52.423Z,964.34
2022-09-02T05:18:23.384Z,964.34
2022-09-02T05:18:54.385Z,964.34
2022-09-02T05:19:25.414Z,964.34
2022-09-02T05:19:56.561Z,964.34
2022-09-02T05:20:27.456Z,964.41
2022-09-02T05:20:58.311Z,964.41
2022-09-02T05:21:29.362Z,964.24
2022-09-02T05:22:01.381Z,964.24
2022-09-02T05:22:31.342Z,964.41
2022-09-02T05:23:02.547Z,964.51
2022-09-02T05:23:33.409Z,964.51
2022-09-02T05:24:04.410Z,964.34
2022-09-02T05:24:35.331Z,964.34
2022-09-02T05:25:06.464Z,964.34
2022-09-02T05:25:37.383Z,964.34
2022-09-02T05:26:08.496Z,964.41
2022-09-02T05:26:39.444Z,964.41
2022-09-02T05:27:11.393Z,964.34
2022-09-02T05:27:41.369Z,964.34
2022-09-02T05:28:12.422Z,964.41
2022-09-02T05:28:43.313Z,964.41
2022-09-02T05:29:14.363Z,964.71
2022-09-02T05:29:45.715Z,964.71
2022-09-02T05:30:28.738Z,964.34
2022-09-02T05:30:47.474Z,964.34
2022-09-02T05:31:18.388Z,964.34
2022-09-02T05:31:49.381Z,964.34
2022-09-02T05:32:21.441Z,964.41
2022-09-02T05:32:51.393Z,964.41
2022-09-02T05:33:22.397Z,964.24
2022-09-02T05:33:53.401Z,964.24
2022-09-02T05:34:24.369Z,964.34
2022-09-02T05:34:55.338Z,964.34
2022-09-02T05:35:26.463Z,964.41
2022-09-02T05:35:57.343Z,964.41
2022-09-02T05:36:28.437Z,964.34
2022-09-02T05:36:59.355Z,964.34
2022-09-02T05:37:31.329Z,964.41
2022-09-02T05:38:01.420Z,964.41
2022-09-02T05:38:32.367Z,964.41
2022-09-02T05:39:03.393Z,964.34
2022-09-02T05:39:34.425Z,964.34
2022-09-02T05:40:05.605Z,964.51
2022-09-02T05:40:36.514Z,964.51
2022-09-02T05:41:07.372Z,964.41
2022-09-02T05:41:38.342Z,964.41
2022-09-02T05:42:09.364Z,964.51
2022-09-02T05:42:41.413Z,964.51
2022-09-02T05:43:11.316Z,964.41
2022-09-02T05:43:42.354Z,964.41
2022-09-02T05:44:13.315Z,964.41
2022-09-02T05:44:44.368Z,964.41
2022-09-02T05:45:27.777Z,964.51
2022-09-02T05:45:46.428Z,964.51
2022-09-02T05:46:17.691Z,964.34
2022-09-02T05:46:49.075Z,964.34
2022-09-02T05:47:19.338Z,964.41
2022-09-02T05:47:51.360Z,964.41
2022-09-02T05:48:21.356Z,964.51
2022-09-02T05:48:52.387Z,964.51
2022-09-02T05:49:23.346Z,964.61
2022-09-02T05:49:54.352Z,964.61
2022-09-02T05:50:25.418Z,964.51
2022-09-02T05:50:57.488Z,964.51
2022-09-02T05:51:27.355Z,964.34
2022-09-02T05:51:58.346Z,964.34
2022-09-02T05:52:29.394Z,964.34
2022-09-02T05:53:01.398Z,964.34
2022-09-02T05:53:31.327Z,964.34
2022-09-02T05:54:02.438Z,964.51
2022-09-02T05:54:33.337Z,964.51
2022-09-02T05:55:04.384Z,964.41
2022-09-02T05:55:35.398Z,964.41
2022-09-02T05:56:06.379Z,964.51
2022-09-02T05:56:37.417Z,964.51
2022-09-02T05:57:08.381Z,964.41
2022-09-02T05:57:39.370Z,964.41
2022-09-02T05:58:11.424Z,964.34
2022-09-02T05:58:41.345Z,964.34
2022-09-02T05:59:12.372Z,964.51
2022-09-02T05:59:43.363Z,964.51
2022-09-02T06:00:26.761Z,964.41
2022-09-02T06:00:45.347Z,964.41
2022-09-02T06:01:16.336Z,964.51
2022-09-02T06:01:47.377Z,964.51
2022-09-02T06:02:18.519Z,964.41
2022-09-02T06:02:49.439Z,964.41
2022-09-02T06:03:21.464Z,964.34
2022-09-02T06:03:51.405Z,964.34
2022-09-02T06:04:22.381Z,964.51
2022-09-02T06:04:53.353Z,964.51
2022-09-02T06:05:24.328Z,964.61
2022-09-02T06:05:55.364Z,964.61
2022-09-02T06:06:26.387Z,964.71
2022-09-02T06:06:57.336Z,964.71
2022-09-02T06:07:28.355Z,964.51
2022-09-02T06:07:59.363Z,964.51
2022-09-02T06:08:31.326Z,964.51
2022-09-02T06:09:01.390Z,964.51
2022-09-02T06:09:32.347Z,964.51
2022-09-02T06:10:03.429Z,964.71
2022-09-02T06:10:34.366Z,964.71
2022-09-02T06:11:05.363Z,964.51
2022-09-02T06:11:36.330Z,964.51
2022-09-02T06:12:07.392Z,964.61
2022-09-02T06:12:42.387Z,964.61
2022-09-02T06:13:09.484Z,964.34
2022-09-02T06:13:41.505Z,964.34
2022-09-02T06:14:11.488Z,964.71
2022-09-02T06:14:42.445Z,964.71
2022-09-02T06:15:25.761Z,964.41
2022-09-02T06:15:44.544Z,964.41
2022-09-02T06:16:15.461Z,964.61
2022-09-02T06:16:46.402Z,964.61
2022-09-02T06:17:17.273Z,964.51
2022-09-02T06:17:48.403Z,964.51
2022-09-02T06:18:19.425Z,964.61
2022-09-02T06:18:51.437Z,964.61
2022-09-02T06:19:21.508Z,964.61
2022-09-02T06:19:52.831Z,964.61
2022-09-02T06:20:23.467Z,964.81
2022-09-02T06:20:54.421Z,964.81
2022-09-02T06:21:25.471Z,964.71
2022-09-02T06:21:56.373Z,964.71
2022-09-02T06:22:27.391Z,964.71
2022-09-02T06:22:58.418Z,964.71
2022-09-02T06:23:29.441Z,964.51
2022-09-02T06:24:01.450Z,964.51
2022-09-02T06:24:31.431Z,964.71
2022-09-02T06:25:02.569Z,964.61
2022-09-02T06:25:33.413Z,964.61
2022-09-02T06:26:04.370Z,964.61
2022-09-02T06:26:35.662Z,964.61